createdAt,value
2023-02-13T00:00:50.296Z,12.50
2023-02-13T00:03:17.700Z,13.20
2023-02-13T00:05:45.092Z,12.10
2023-02-13T00:08:12.530Z,13.40
2023-02-13T00:10:40.235Z,12.90
2023-02-13T00:13:07.671Z,13.10
2023-02-13T00:15:35.207Z,13.10
2023-02-13T00:18:02.979Z,12.60
2023-02-13T00:20:30.551Z,14.80
2023-02-13T00:23:00.063Z,13.30
2023-02-13T00:25:27.857Z,13.70
2023-02-13T00:27:55.258Z,13.60
2023-02-13T00:30:23.088Z,13.80
2023-02-13T00:32:50.472Z,12.30
2023-02-13T00:35:18.214Z,13.00
2023-02-13T00:37:45.605Z,12.50
2023-02-13T00:40:13.566Z,13.80
2023-02-13T00:42:40.958Z,13.40
2023-02-13T00:45:09.167Z,13.60
2023-02-13T00:47:36.605Z,13.30
2023-02-13T00:50:04.534Z,13.20
2023-02-13T00:52:32.189Z,12.90
2023-02-13T00:54:59.646Z,14.10
2023-02-13T00:57:27.109Z,14.20
2023-02-13T00:59:54.446Z,14.40
2023-02-13T01:02:21.884Z,13.90
2023-02-13T01:04:49.468Z,13.70
2023-02-13T01:07:17.085Z,13.70
2023-02-13T01:09:44.586Z,14.30
2023-02-13T01:12:12.032Z,13.60
2023-02-13T01:14:39.438Z,14.50
2023-02-13T01:17:06.811Z,13.90
2023-02-13T01:19:36.562Z,14.20
2023-02-13T01:22:04.135Z,13.80
2023-02-13T01:24:33.292Z,14.20
2023-02-13T01:27:02.456Z,14.80
2023-02-13T01:29:30.191Z,14.00
2023-02-13T01:31:57.814Z,13.90
2023-02-13T01:34:25.285Z,14.40
2023-02-13T01:36:52.750Z,13.90
2023-02-13T01:39:20.123Z,15.70
2023-02-13T01:41:47.504Z,14.40
2023-02-13T01:44:47.728Z,15.10
2023-02-13T01:47:26.129Z,14.50
2023-02-13T01:50:12.857Z,15.10
2023-02-13T01:52:48.965Z,15.00
2023-02-13T01:55:17.180Z,14.80
2023-02-13T01:57:54.010Z,15.00
2023-02-13T02:00:21.973Z,15.60
2023-02-13T02:02:59.368Z,15.10
2023-02-13T02:05:29.192Z,15.10
2023-02-13T02:07:59.779Z,14.80
2023-02-13T02:10:28.089Z,16.30
2023-02-13T02:13:08.365Z,14.60
2023-02-13T02:15:35.877Z,15.30
2023-02-13T02:18:03.459Z,13.60
2023-02-13T02:21:08.264Z,13.50
2023-02-13T02:24:29.767Z,14.80
2023-02-13T02:27:15.277Z,15.30
2023-02-13T02:30:04.373Z,15.20
2023-02-13T02:33:18.358Z,14.60
2023-02-13T02:36:19.057Z,15.60
2023-02-13T02:39:14.187Z,14.90
2023-02-13T02:42:12.204Z,15.30
2023-02-13T02:44:47.501Z,15.40
2023-02-13T02:47:45.838Z,14.60
2023-02-13T02:50:22.261Z,16.30
2023-02-13T02:52:57.457Z,15.70
2023-02-13T02:55:33.244Z,15.60
2023-02-13T02:58:57.349Z,15.00
2023-02-13T03:01:47.642Z,14.00
2023-02-13T03:04:45.614Z,15.80
2023-02-13T03:07:17.997Z,15.00
2023-02-13T03:10:30.894Z,15.40
2023-02-13T03:13:21.640Z,14.90
2023-02-13T03:16:16.458Z,14.90
2023-02-13T03:19:10.250Z,14.40
2023-02-13T03:22:18.239Z,15.70
2023-02-13T03:25:35.331Z,14.60
2023-02-13T03:28:40.297Z,15.80
2023-02-13T03:31:17.741Z,14.80
2023-02-13T03:34:06.517Z,15.70
2023-02-13T03:36:56.637Z,14.90
2023-02-13T03:39:44.986Z,15.30
2023-02-13T03:42:35.676Z,15.00
2023-02-13T03:45:33.730Z,15.50
2023-02-13T03:48:10.100Z,15.10
2023-02-13T03:50:41.766Z,15.80
2023-02-13T03:53:13.468Z,14.10
2023-02-13T03:56:03.683Z,14.40
2023-02-13T03:58:55.243Z,15.60
2023-02-13T04:01:29.471Z,17.60
2023-02-13T04:04:08.165Z,16.30
2023-02-13T04:06:50.970Z,16.40
2023-02-13T04:09:18.814Z,15.20
2023-02-13T04:12:17.472Z,15.00
2023-02-13T04:14:58.620Z,15.50
2023-02-13T04:17:39.422Z,15.90
2023-02-13T04:20:08.981Z,16.30
2023-02-13T04:22:45.719Z,15.20
2023-02-13T04:25:16.348Z,14.90
2023-02-13T04:27:43.860Z,15.80
2023-02-13T04:30:12.263Z,14.80
2023-02-13T04:32:39.625Z,16.80
2023-02-13T04:35:07.163Z,16.70
2023-02-13T04:37:34.528Z,15.20
2023-02-13T04:40:01.886Z,15.30
2023-02-13T04:42:29.258Z,15.60
2023-02-13T04:44:56.686Z,16.90
2023-02-13T04:47:24.060Z,16.70
2023-02-13T04:49:51.453Z,15.90
2023-02-13T04:52:18.836Z,16.60
2023-02-13T04:54:46.323Z,15.20
2023-02-13T04:57:13.980Z,16.60
2023-02-13T04:59:41.557Z,15.80
2023-02-13T05:02:08.944Z,15.10
2023-02-13T05:04:36.397Z,15.80
2023-02-13T05:07:03.825Z,15.20
2023-02-13T05:09:31.183Z,15.80
2023-02-13T05:11:58.563Z,15.90
2023-02-13T05:14:26.064Z,15.30
2023-02-13T05:16:53.537Z,16.20
2023-02-13T05:19:20.887Z,16.40
2023-02-13T05:22:07.075Z,17.10
2023-02-13T05:24:34.490Z,16.70
2023-02-13T05:27:01.852Z,17.50
2023-02-13T05:29:29.235Z,15.70
2023-02-13T05:31:58.629Z,16.60
2023-02-13T05:34:28.089Z,15.80
2023-02-13T05:36:55.801Z,15.30
2023-02-13T05:39:23.276Z,16.10
2023-02-13T05:41:50.707Z,15.80
2023-02-13T05:44:18.188Z,16.20
2023-02-13T05:46:46.128Z,17.40
2023-02-13T05:49:15.633Z,16.90
2023-02-13T05:51:43.929Z,15.90
2023-02-13T05:54:11.309Z,16.20
2023-02-13T05:56:38.756Z,16.80
2023-02-13T05:59:06.813Z,16.50
2023-02-13T06:01:34.360Z,16.70
2023-02-13T06:04:03.899Z,16.10
2023-02-13T06:06:31.536Z,15.90
2023-02-13T06:08:58.986Z,16.60
2023-02-13T06:11:26.408Z,17.40
2023-02-13T06:13:53.848Z,16.00
2023-02-13T06:16:22.483Z,15.70
2023-02-13T06:18:49.928Z,17.20
2023-02-13T06:21:17.348Z,17.10
2023-02-13T06:23:44.808Z,16.00
2023-02-13T06:26:12.199Z,15.50
2023-02-13T06:28:39.683Z,16.40
2023-02-13T06:31:07.309Z,18.30
2023-02-13T06:33:34.856Z,17.20
2023-02-13T06:36:02.442Z,16.70
2023-02-13T06:38:29.964Z,16.60
2023-02-13T06:41:01.991Z,16.50
2023-02-13T06:43:29.486Z,16.30
2023-02-13T06:45:56.947Z,16.50
2023-02-13T06:48:24.874Z,16.70
2023-02-13T06:50:52.225Z,17.00
2023-02-13T06:53:24.839Z,17.80
2023-02-13T06:55:53.815Z,15.90
2023-02-13T06:58:23.059Z,16.00
2023-02-13T07:00:52.293Z,17.50
2023-02-13T07:03:19.737Z,17.10
2023-02-13T07:05:47.599Z,16.70
2023-02-13T07:08:14.979Z,15.90
2023-02-13T07:10:42.652Z,16.20
2023-02-13T07:13:10.655Z,19.50
2023-02-13T07:15:38.587Z,18.90
2023-02-13T07:18:06.652Z,18.00
2023-02-13T07:20:34.577Z,17.10
2023-02-13T07:23:05.196Z,18.60
2023-02-13T07:25:34.415Z,17.60
2023-02-13T07:28:04.948Z,17.00
2023-02-13T07:30:33.831Z,17.50
2023-02-13T07:33:02.866Z,16.50
2023-02-13T07:35:31.288Z,17.80
2023-02-13T07:38:00.544Z,18.60
2023-02-13T07:40:28.164Z,17.90
2023-02-13T07:42:56.621Z,19.60
2023-02-13T07:45:24.081Z,19.40
2023-02-13T07:47:51.455Z,18.60
2023-02-13T07:50:19.070Z,18.10
2023-02-13T07:52:57.362Z,17.60
2023-02-13T07:55:25.092Z,18.20
2023-02-13T07:57:52.975Z,18.80
2023-02-13T08:00:21.635Z,18.60
2023-02-13T08:02:49.199Z,19.40
2023-02-13T08:05:16.786Z,19.40
2023-02-13T08:07:44.212Z,18.80
2023-02-13T08:10:31.966Z,17.30
2023-02-13T08:12:59.895Z,17.60
2023-02-13T08:15:27.438Z,20.20
2023-02-13T08:17:54.899Z,17.50
2023-02-13T08:20:24.048Z,18.10
2023-02-13T08:22:51.573Z,18.70
2023-02-13T08:25:19.739Z,17.90
2023-02-13T08:27:47.534Z,18.20
2023-02-13T08:30:15.441Z,20.10
2023-02-13T08:32:53.928Z,17.30
2023-02-13T08:35:26.727Z,16.90
2023-02-13T08:37:54.222Z,17.40
2023-02-13T08:40:23.509Z,19.90
2023-02-13T08:42:53.035Z,17.90
2023-02-13T08:45:20.723Z,17.50
2023-02-13T08:47:48.091Z,18.40
2023-02-13T08:50:15.563Z,18.60
2023-02-13T08:52:42.915Z,18.70
2023-02-13T08:55:10.321Z,19.70
2023-02-13T08:57:37.734Z,18.80
2023-02-13T09:00:06.054Z,21.50
2023-02-13T09:02:33.550Z,18.90
2023-02-13T09:05:00.963Z,18.30
2023-02-13T09:07:28.437Z,19.90
2023-02-13T09:09:55.860Z,19.60
2023-02-13T09:12:23.324Z,18.40
2023-02-13T09:14:50.731Z,19.50
2023-02-13T09:17:19.735Z,20.70
2023-02-13T09:19:47.309Z,19.30
2023-02-13T09:22:17.187Z,20.10
2023-02-13T09:24:44.921Z,17.30
2023-02-13T09:27:12.303Z,19.40
2023-02-13T09:29:39.647Z,19.40
2023-02-13T09:32:07.156Z,19.30
2023-02-13T09:34:34.804Z,18.90
2023-02-13T09:37:02.226Z,20.00
2023-02-13T09:39:29.588Z,18.90
2023-02-13T09:41:58.753Z,18.70
2023-02-13T09:44:35.799Z,19.30
2023-02-13T09:47:18.077Z,19.20
2023-02-13T09:49:53.061Z,18.60
2023-02-13T09:52:20.528Z,19.90
2023-02-13T09:54:47.954Z,18.90
2023-02-13T09:57:47.030Z,18.60
2023-02-13T10:00:26.203Z,19.00
2023-02-13T10:03:06.850Z,18.90
2023-02-13T10:06:05.076Z,17.60
2023-02-13T10:09:17.451Z,19.30
2023-02-13T10:12:13.654Z,18.70
2023-02-13T10:15:25.615Z,20.00
2023-02-13T10:18:06.052Z,19.10
2023-02-13T10:20:48.789Z,19.90
2023-02-13T10:23:44.593Z,19.10
2023-02-13T10:26:22.768Z,18.30
2023-02-13T10:29:19.138Z,18.60
2023-02-13T10:31:49.853Z,19.10
2023-02-13T10:34:22.227Z,19.20
2023-02-13T10:36:49.712Z,19.00
2023-02-13T10:39:31.184Z,19.50
2023-02-13T10:42:56.884Z,18.70
2023-02-13T10:46:04.659Z,18.80
2023-02-13T10:48:50.834Z,17.70
2023-02-13T10:51:27.009Z,18.30
2023-02-13T10:54:18.685Z,18.00
2023-02-13T10:57:49.413Z,18.40
2023-02-13T11:00:51.710Z,17.90
2023-02-13T11:03:23.450Z,17.50
2023-02-13T11:05:53.393Z,17.30
2023-02-13T11:08:40.848Z,17.80
2023-02-13T11:11:38.974Z,18.00
2023-02-13T11:14:25.375Z,17.90
2023-02-13T11:17:22.021Z,18.00
2023-02-13T11:19:53.504Z,18.90
2023-02-13T11:22:37.688Z,17.60
2023-02-13T11:25:21.765Z,17.70
2023-02-13T11:27:53.132Z,16.70
2023-02-13T11:30:23.506Z,16.30
2023-02-13T11:33:17.080Z,16.50
2023-02-13T11:35:46.459Z,17.50
2023-02-13T11:38:18.159Z,17.70
2023-02-13T11:40:56.994Z,16.50
2023-02-13T11:43:29.158Z,17.90
2023-02-13T11:46:12.031Z,16.10
2023-02-13T11:48:39.394Z,16.40
2023-02-13T11:51:06.849Z,17.70
2023-02-13T11:53:39.486Z,15.80
2023-02-13T11:56:15.774Z,16.70
2023-02-13T11:58:43.670Z,16.60
2023-02-13T12:01:25.021Z,16.50
2023-02-13T12:04:18.849Z,17.70
2023-02-13T12:07:05.331Z,17.90
2023-02-13T12:09:32.988Z,18.00
2023-02-13T12:12:05.367Z,18.30
2023-02-13T12:14:41.973Z,18.90
2023-02-13T12:17:31.325Z,17.80
2023-02-13T12:20:00.701Z,18.00
2023-02-13T12:22:33.974Z,18.70
2023-02-13T12:25:14.025Z,19.10
2023-02-13T12:28:11.894Z,18.30
2023-02-13T12:30:54.634Z,17.50
2023-02-13T12:33:54.176Z,17.50
2023-02-13T12:36:25.383Z,17.20
2023-02-13T12:39:14.070Z,17.20
2023-02-13T12:42:21.824Z,16.30
2023-02-13T12:45:02.635Z,16.50
2023-02-13T12:47:39.121Z,16.90
2023-02-13T12:50:16.596Z,16.30
2023-02-13T12:53:05.002Z,16.20
2023-02-13T12:55:47.694Z,16.50
2023-02-13T12:58:44.544Z,16.50
2023-02-13T13:01:43.910Z,16.20
2023-02-13T13:04:25.407Z,17.50
2023-02-13T13:07:29.612Z,16.20
2023-02-13T13:10:36.366Z,17.00
2023-02-13T13:13:38.221Z,15.90
2023-02-13T13:16:29.444Z,16.70
2023-02-13T13:19:22.886Z,16.70
2023-02-13T13:21:55.865Z,15.50
2023-02-13T13:24:38.424Z,15.80
2023-02-13T13:27:23.757Z,16.60
2023-02-13T13:29:59.629Z,15.40
2023-02-13T13:32:29.898Z,16.50
2023-02-13T13:34:58.781Z,16.00
2023-02-13T13:37:42.985Z,15.90
2023-02-13T13:40:32.076Z,15.90
2023-02-13T13:43:28.372Z,15.80
2023-02-13T13:46:31.969Z,14.90
2023-02-13T13:49:43.150Z,15.00
2023-02-13T13:52:26.691Z,14.40
2023-02-13T13:54:56.362Z,14.70
2023-02-13T13:57:41.787Z,14.80
2023-02-13T14:00:09.555Z,16.10
2023-02-13T14:02:47.685Z,15.10
2023-02-13T14:05:30.084Z,14.10
2023-02-13T14:08:08.834Z,14.20
2023-02-13T14:10:38.237Z,14.60
2023-02-13T14:13:08.448Z,13.90
2023-02-13T14:15:38.649Z,14.90
2023-02-13T14:18:15.090Z,14.10
2023-02-13T14:20:42.566Z,14.10
2023-02-13T14:23:28.785Z,14.80
2023-02-13T14:26:17.712Z,16.10
2023-02-13T14:28:51.163Z,15.00
2023-02-13T14:31:41.492Z,15.80
2023-02-13T14:34:11.909Z,14.10
2023-02-13T14:36:44.380Z,14.20
2023-02-13T14:39:29.591Z,14.80
2023-02-13T14:42:01.392Z,14.10
2023-02-13T14:44:47.587Z,14.80
2023-02-13T14:47:44.272Z,14.70
2023-02-13T14:50:30.036Z,14.40
2023-02-13T14:53:09.498Z,14.60
2023-02-13T14:55:43.076Z,15.80
2023-02-13T14:58:28.094Z,13.60
2023-02-13T15:01:18.826Z,14.40
2023-02-13T15:04:00.918Z,14.50
2023-02-13T15:06:33.292Z,16.00
2023-02-13T15:09:07.000Z,14.60
2023-02-13T15:11:42.963Z,14.80
2023-02-13T15:14:19.643Z,14.10
2023-02-13T15:16:52.994Z,15.00
2023-02-13T15:19:22.929Z,14.60
2023-02-13T15:22:00.572Z,15.60
2023-02-13T15:24:45.945Z,12.80
2023-02-13T15:27:26.954Z,13.80
2023-02-13T15:30:15.687Z,14.10
2023-02-13T15:32:43.101Z,13.60
2023-02-13T15:35:25.625Z,15.10
2023-02-13T15:37:54.842Z,14.70
2023-02-13T15:40:24.492Z,14.80
2023-02-13T15:42:52.786Z,14.10
2023-02-13T15:45:22.988Z,14.40
2023-02-13T15:47:52.247Z,15.10
2023-02-13T15:50:28.901Z,15.00
2023-02-13T15:52:57.117Z,16.10
2023-02-13T15:55:28.913Z,16.40
2023-02-13T15:57:59.680Z,15.50
2023-02-13T16:00:32.227Z,14.30
2023-02-13T16:03:02.898Z,15.50
2023-02-13T16:05:40.805Z,15.30
2023-02-13T16:08:40.672Z,15.40
2023-02-13T16:11:39.640Z,15.60
2023-02-13T16:14:27.411Z,15.90
2023-02-13T16:17:05.617Z,15.80
2023-02-13T16:19:51.118Z,16.20
2023-02-13T16:22:26.318Z,15.60
2023-02-13T16:25:04.246Z,15.90
2023-02-13T16:27:33.604Z,16.60
2023-02-13T16:30:05.833Z,16.20
2023-02-13T16:32:38.850Z,16.50
2023-02-13T16:35:39.625Z,15.70
2023-02-13T16:38:41.831Z,16.00
2023-02-13T16:41:28.641Z,15.50
2023-02-13T16:44:03.343Z,17.40
2023-02-13T16:47:10.426Z,15.80
2023-02-13T16:49:38.047Z,16.00
2023-02-13T16:52:19.168Z,16.20
2023-02-13T16:54:59.603Z,15.60
2023-02-13T16:57:33.261Z,16.30
2023-02-13T17:00:06.005Z,15.70
2023-02-13T17:02:39.968Z,14.90
2023-02-13T17:05:07.408Z,16.00
2023-02-13T17:07:51.082Z,16.70
2023-02-13T17:10:33.681Z,17.00
2023-02-13T17:13:11.953Z,15.90
2023-02-13T17:15:47.628Z,16.20
2023-02-13T17:18:15.190Z,16.30
2023-02-13T17:20:45.030Z,16.40
2023-02-13T17:23:21.210Z,16.30
2023-02-13T17:25:52.000Z,16.40
2023-02-13T17:28:26.430Z,15.90
2023-02-13T17:30:57.729Z,17.90
2023-02-13T17:33:31.583Z,16.10
2023-02-13T17:35:58.934Z,15.80
2023-02-13T17:38:26.424Z,16.30
2023-02-13T17:40:54.204Z,16.00
2023-02-13T17:43:21.718Z,15.70
2023-02-13T17:45:51.384Z,17.00
2023-02-13T17:48:19.360Z,16.30
2023-02-13T17:50:49.019Z,17.30
2023-02-13T17:53:24.464Z,16.30
2023-02-13T17:55:52.300Z,16.50
2023-02-13T17:58:19.664Z,16.90
2023-02-13T18:00:47.324Z,17.60
2023-02-13T18:03:14.787Z,16.70
2023-02-13T18:05:42.193Z,16.30
2023-02-13T18:08:09.911Z,16.00
2023-02-13T18:10:37.605Z,17.40
2023-02-13T18:13:05.673Z,16.80
2023-02-13T18:15:38.864Z,17.00
2023-02-13T18:18:06.291Z,16.50
2023-02-13T18:20:34.154Z,16.30
2023-02-13T18:23:01.677Z,16.50
2023-02-13T18:25:29.222Z,17.60
2023-02-13T18:27:56.632Z,16.70
2023-02-13T18:30:24.699Z,16.20
2023-02-13T18:32:54.818Z,17.10
2023-02-13T18:35:23.767Z,17.30
2023-02-13T18:37:51.604Z,17.40
2023-02-13T18:40:19.585Z,18.60
2023-02-13T18:42:47.134Z,17.30
2023-02-13T18:45:14.802Z,17.60
2023-02-13T18:47:42.368Z,18.90
2023-02-13T18:50:10.404Z,17.70
2023-02-13T18:52:38.094Z,18.20
2023-02-13T18:55:09.431Z,18.00
2023-02-13T19:00:05.531Z,17.40
2023-02-13T19:02:33.515Z,19.90
2023-02-13T19:05:01.482Z,23.00
2023-02-13T19:07:29.257Z,23.00
2023-02-13T19:09:56.714Z,21.50
2023-02-13T19:12:24.190Z,22.60
2023-02-13T19:14:51.601Z,23.30
2023-02-13T19:17:19.019Z,21.10
2023-02-13T19:19:48.770Z,20.80
2023-02-13T19:22:16.270Z,22.80
2023-02-13T19:24:44.158Z,20.40
2023-02-13T19:27:11.630Z,20.40
2023-02-13T19:29:39.163Z,19.50
2023-02-13T19:32:06.579Z,20.70
2023-02-13T19:34:34.082Z,20.60
2023-02-13T19:37:01.505Z,20.70
2023-02-13T19:39:28.982Z,18.30
2023-02-13T19:41:56.496Z,20.00
2023-02-13T19:44:23.935Z,20.20
2023-02-13T19:46:51.504Z,20.20
2023-02-13T19:49:21.076Z,20.70
2023-02-13T19:51:48.736Z,19.00
2023-02-13T19:54:16.198Z,19.20
2023-02-13T19:56:43.821Z,19.30
2023-02-13T19:59:13.547Z,19.70
2023-02-13T20:01:42.921Z,19.20
2023-02-13T20:04:11.691Z,19.90
2023-02-13T20:06:40.086Z,20.90
2023-02-13T20:09:12.163Z,19.80
2023-02-13T20:11:41.569Z,19.50
2023-02-13T20:14:16.230Z,20.50
2023-02-13T20:16:46.421Z,20.80
2023-02-13T20:19:14.462Z,22.30
2023-02-13T20:21:42.851Z,23.00
2023-02-13T20:24:11.928Z,31.30
2023-02-13T20:26:40.320Z,26.40
2023-02-13T20:29:09.286Z,23.20
2023-02-13T20:31:37.074Z,24.30
2023-02-13T20:34:07.111Z,24.20
2023-02-13T20:36:34.876Z,25.40
2023-02-13T20:41:50.359Z,25.80
2023-02-13T20:44:22.911Z,24.50
2023-02-13T20:46:51.174Z,24.70
2023-02-13T20:49:21.886Z,22.60
2023-02-13T20:51:49.592Z,24.10
2023-02-13T20:54:17.157Z,24.90
2023-02-13T20:56:45.998Z,24.50
2023-02-13T20:59:13.458Z,25.50
2023-02-13T21:01:41.582Z,26.00
2023-02-13T21:04:11.270Z,23.70
2023-02-13T21:06:39.723Z,25.50
2023-02-13T21:09:09.478Z,26.10
2023-02-13T21:11:40.657Z,24.30
2023-02-13T21:14:09.484Z,26.10
2023-02-13T21:16:40.173Z,25.60
2023-02-13T21:19:12.967Z,24.90
2023-02-13T21:21:44.302Z,26.70
2023-02-13T21:26:43.959Z,25.20
2023-02-13T21:29:11.684Z,25.70
2023-02-13T21:31:44.932Z,24.40
2023-02-13T21:34:13.631Z,24.70
2023-02-13T21:36:41.123Z,24.10
2023-02-13T21:39:11.037Z,26.20
2023-02-13T21:41:41.361Z,24.90
2023-02-13T21:44:13.446Z,25.60
2023-02-13T21:46:42.122Z,28.40
2023-02-13T21:49:14.256Z,27.50
2023-02-13T21:51:42.380Z,26.90
2023-02-13T21:54:11.261Z,28.90
2023-02-13T21:56:41.442Z,27.30
2023-02-13T21:59:11.088Z,26.80
2023-02-13T22:01:38.593Z,25.90
2023-02-13T22:04:08.382Z,26.90
2023-02-13T22:06:39.325Z,26.30
2023-02-13T22:09:10.040Z,25.80
2023-02-13T22:11:38.398Z,25.30
2023-02-13T22:14:08.821Z,26.90
2023-02-13T22:16:38.743Z,24.50
2023-02-13T22:19:07.276Z,26.30
2023-02-13T22:21:36.713Z,27.10
2023-02-13T22:24:04.910Z,27.20
2023-02-13T22:26:37.426Z,26.70
2023-02-13T22:29:11.213Z,28.00
2023-02-13T22:31:39.080Z,26.70
2023-02-13T22:34:07.012Z,28.30
2023-02-13T22:36:40.291Z,28.70
2023-02-13T22:39:09.849Z,30.60
2023-02-13T22:41:37.641Z,29.40
2023-02-13T22:44:05.345Z,30.20
2023-02-13T22:46:33.905Z,27.60
2023-02-13T22:49:02.035Z,27.10
2023-02-13T22:51:36.006Z,26.60
2023-02-13T22:54:04.629Z,27.90
2023-02-13T22:56:32.933Z,26.50
2023-02-13T22:59:00.704Z,26.50
2023-02-13T23:01:29.291Z,25.60
2023-02-13T23:03:57.640Z,26.90
2023-02-13T23:06:25.746Z,26.20
2023-02-13T23:08:53.774Z,26.20
2023-02-13T23:11:46.427Z,25.90
2023-02-13T23:14:14.499Z,26.20
2023-02-13T23:17:01.027Z,25.60
2023-02-13T23:19:29.927Z,25.20
2023-02-13T23:21:59.296Z,26.70
2023-02-13T23:24:27.472Z,25.50
2023-02-13T23:26:54.978Z,25.70
2023-02-13T23:29:22.432Z,26.00
2023-02-13T23:31:49.892Z,26.40
2023-02-13T23:34:17.556Z,25.50
2023-02-13T23:36:44.946Z,25.70
2023-02-13T23:39:12.377Z,25.80
2023-02-13T23:41:39.834Z,25.40
2023-02-13T23:44:07.288Z,26.80
2023-02-13T23:46:34.851Z,24.60
2023-02-13T23:49:03.903Z,26.30
2023-02-13T23:51:32.038Z,25.00
2023-02-13T23:54:00.471Z,26.50
2023-02-13T23:56:27.960Z,25.90
2023-02-13T23:58:56.920Z,26.10
